sensor_id;sensor_type;location;lat;lon;timestamp;temperature;humidity
8067;DHT22;4076;48.076;9.118;2023-06-05T00:00:59;10.70;99.90
8067;DHT22;4076;48.076;9.118;2023-06-05T00:03:25;10.60;99.90
8067;DHT22;4076;48.076;9.118;2023-06-05T00:05:52;10.60;99.90
8067;DHT22;4076;48.076;9.118;2023-06-05T00:08:18;10.60;99.90
8067;DHT22;4076;48.076;9.118;2023-06-05T00:10:43;10.60;99.90
8067;DHT22;4076;48.076;9.118;2023-06-05T00:13:09;10.60;99.90
8067;DHT22;4076;48.076;9.118;2023-06-05T00:15:34;10.60;99.90
8067;DHT22;4076;48.076;9.118;2023-06-05T00:18:02;10.50;99.90
8067;DHT22;4076;48.076;9.118;2023-06-05T00:20:29;10.40;99.90
8067;DHT22;4076;48.076;9.118;2023-06-05T00:22:55;10.30;99.90
8067;DHT22;4076;48.076;9.118;2023-06-05T00:25:20;10.30;99.90
8067;DHT22;4076;48.076;9.118;2023-06-05T00:27:46;10.30;99.90
8067;DHT22;4076;48.076;9.118;2023-06-05T00:30:12;10.20;99.90
8067;DHT22;4076;48.076;9.118;2023-06-05T00:32:39;10.20;99.90
8067;DHT22;4076;48.076;9.118;2023-06-05T00:35:05;10.20;99.90
8067;DHT22;4076;48.076;9.118;2023-06-05T00:37:31;10.10;99.90
8067;DHT22;4076;48.076;9.118;2023-06-05T00:39:59;10.10;99.90
8067;DHT22;4076;48.076;9.118;2023-06-05T00:42:25;10.00;99.90
8067;DHT22;4076;48.076;9.118;2023-06-05T00:44:52;10.00;99.90
8067;DHT22;4076;48.076;9.118;2023-06-05T00:47:18;10.00;99.90
8067;DHT22;4076;48.076;9.118;2023-06-05T00:49:44;10.00;99.90
8067;DHT22;4076;48.076;9.118;2023-06-05T00:52:10;9.90;99.90
8067;DHT22;4076;48.076;9.118;2023-06-05T00:54:36;9.90;99.90
8067;DHT22;4076;48.076;9.118;2023-06-05T00:57:01;9.80;99.90
8067;DHT22;4076;48.076;9.118;2023-06-05T00:59:27;9.80;99.90
8067;DHT22;4076;48.076;9.118;2023-06-05T01:01:54;9.90;99.90
8067;DHT22;4076;48.076;9.118;2023-06-05T01:04:21;9.80;99.90
8067;DHT22;4076;48.076;9.118;2023-06-05T01:06:49;9.80;99.90
8067;DHT22;4076;48.076;9.118;2023-06-05T01:09:17;9.70;99.90
8067;DHT22;4076;48.076;9.118;2023-06-05T01:11:58;9.80;99.90
8067;DHT22;4076;48.076;9.118;2023-06-05T01:14:25;9.80;99.90
8067;DHT22;4076;48.076;9.118;2023-06-05T01:16:53;9.80;99.90
8067;DHT22;4076;48.076;9.118;2023-06-05T01:19:20;9.80;99.90
8067;DHT22;4076;48.076;9.118;2023-06-05T01:21:47;9.80;99.90
8067;DHT22;4076;48.076;9.118;2023-06-05T01:24:12;9.70;99.90
8067;DHT22;4076;48.076;9.118;2023-06-05T01:27:09;9.70;99.90
8067;DHT22;4076;48.076;9.118;2023-06-05T01:30:02;9.70;99.90
8067;DHT22;4076;48.076;9.118;2023-06-05T01:35:11;9.60;99.90
8067;DHT22;4076;48.076;9.118;2023-06-05T01:37:43;9.60;99.90
8067;DHT22;4076;48.076;9.118;2023-06-05T01:40:13;9.50;99.90
8067;DHT22;4076;48.076;9.118;2023-06-05T01:42:40;9.40;99.90
8067;DHT22;4076;48.076;9.118;2023-06-05T01:45:09;9.30;99.90
8067;DHT22;4076;48.076;9.118;2023-06-05T01:47:36;9.30;99.90
8067;DHT22;4076;48.076;9.118;2023-06-05T01:50:02;9.30;99.90
8067;DHT22;4076;48.076;9.118;2023-06-05T01:52:28;9.20;99.90
8067;DHT22;4076;48.076;9.118;2023-06-05T01:54:54;9.20;99.90
8067;DHT22;4076;48.076;9.118;2023-06-05T01:57:20;9.20;99.90
8067;DHT22;4076;48.076;9.118;2023-06-05T01:59:46;9.10;99.90
8067;DHT22;4076;48.076;9.118;2023-06-05T02:02:12;9.10;99.90
8067;DHT22;4076;48.076;9.118;2023-06-05T02:04:40;9.00;99.90
8067;DHT22;4076;48.076;9.118;2023-06-05T02:07:05;9.00;99.90
8067;DHT22;4076;48.076;9.118;2023-06-05T02:09:32;9.00;99.90
8067;DHT22;4076;48.076;9.118;2023-06-05T02:11:58;8.90;99.90
8067;DHT22;4076;48.076;9.118;2023-06-05T02:14:32;8.90;99.90
8067;DHT22;4076;48.076;9.118;2023-06-05T02:17:03;8.90;99.90
8067;DHT22;4076;48.076;9.118;2023-06-05T02:19:32;8.90;99.90
8067;DHT22;4076;48.076;9.118;2023-06-05T02:21:58;8.90;99.90
8067;DHT22;4076;48.076;9.118;2023-06-05T02:24:24;8.90;99.90
8067;DHT22;4076;48.076;9.118;2023-06-05T02:26:50;8.80;99.90
8067;DHT22;4076;48.076;9.118;2023-06-05T02:29:16;8.80;99.90
8067;DHT22;4076;48.076;9.118;2023-06-05T02:31:41;8.80;99.90
8067;DHT22;4076;48.076;9.118;2023-06-05T02:34:07;8.80;99.90
8067;DHT22;4076;48.076;9.118;2023-06-05T02:36:32;8.80;99.90
8067;DHT22;4076;48.076;9.118;2023-06-05T02:39:02;8.80;99.90
8067;DHT22;4076;48.076;9.118;2023-06-05T02:41:30;8.80;99.90
8067;DHT22;4076;48.076;9.118;2023-06-05T02:43:56;8.80;99.90
8067;DHT22;4076;48.076;9.118;2023-06-05T02:46:22;8.90;99.90
8067;DHT22;4076;48.076;9.118;2023-06-05T02:48:52;8.90;99.90
8067;DHT22;4076;48.076;9.118;2023-06-05T02:51:18;8.80;99.90
8067;DHT22;4076;48.076;9.118;2023-06-05T02:53:43;8.80;99.90
8067;DHT22;4076;48.076;9.118;2023-06-05T02:56:09;8.70;99.90
8067;DHT22;4076;48.076;9.118;2023-06-05T02:58:35;8.80;99.90
8067;DHT22;4076;48.076;9.118;2023-06-05T03:01:01;8.70;99.90
8067;DHT22;4076;48.076;9.118;2023-06-05T03:03:31;8.70;99.90
8067;DHT22;4076;48.076;9.118;2023-06-05T03:05:58;8.60;99.90
8067;DHT22;4076;48.076;9.118;2023-06-05T03:08:38;8.60;99.90
8067;DHT22;4076;48.076;9.118;2023-06-05T03:11:04;8.50;99.90
8067;DHT22;4076;48.076;9.118;2023-06-05T03:13:31;8.50;99.90
8067;DHT22;4076;48.076;9.118;2023-06-05T03:15:58;8.40;99.90
8067;DHT22;4076;48.076;9.118;2023-06-05T03:18:26;8.30;99.90
8067;DHT22;4076;48.076;9.118;2023-06-05T03:20:53;8.30;99.90
8067;DHT22;4076;48.076;9.118;2023-06-05T03:23:22;8.30;99.90
8067;DHT22;4076;48.076;9.118;2023-06-05T03:25:48;8.30;99.90
8067;DHT22;4076;48.076;9.118;2023-06-05T03:28:15;8.30;99.90
8067;DHT22;4076;48.076;9.118;2023-06-05T03:30:40;8.30;99.90
8067;DHT22;4076;48.076;9.118;2023-06-05T03:33:06;8.30;99.90
8067;DHT22;4076;48.076;9.118;2023-06-05T03:35:31;8.30;99.90
8067;DHT22;4076;48.076;9.118;2023-06-05T03:37:58;8.30;99.90
8067;DHT22;4076;48.076;9.118;2023-06-05T03:40:24;8.20;99.90
8067;DHT22;4076;48.076;9.118;2023-06-05T03:42:49;8.20;99.90
8067;DHT22;4076;48.076;9.118;2023-06-05T03:45:15;8.30;99.90
8067;DHT22;4076;48.076;9.118;2023-06-05T03:47:41;8.30;99.90
8067;DHT22;4076;48.076;9.118;2023-06-05T03:50:07;8.30;99.90
8067;DHT22;4076;48.076;9.118;2023-06-05T03:52:33;8.30;99.90
8067;DHT22;4076;48.076;9.118;2023-06-05T03:54:58;8.30;99.90
8067;DHT22;4076;48.076;9.118;2023-06-05T03:57:25;8.30;99.90
8067;DHT22;4076;48.076;9.118;2023-06-05T03:59:51;8.40;99.90
8067;DHT22;4076;48.076;9.118;2023-06-05T04:02:18;8.40;99.90
8067;DHT22;4076;48.076;9.118;2023-06-05T04:04:43;8.40;99.90
8067;DHT22;4076;48.076;9.118;2023-06-05T04:07:09;8.40;99.90
8067;DHT22;4076;48.076;9.118;2023-06-05T04:09:34;8.40;99.90
8067;DHT22;4076;48.076;9.118;2023-06-05T04:12:00;8.40;99.90
8067;DHT22;4076;48.076;9.118;2023-06-05T04:14:26;8.40;99.90
8067;DHT22;4076;48.076;9.118;2023-06-05T04:16:51;8.50;99.90
8067;DHT22;4076;48.076;9.118;2023-06-05T04:19:17;8.50;99.90
8067;DHT22;4076;48.076;9.118;2023-06-05T04:21:42;8.50;99.90
8067;DHT22;4076;48.076;9.118;2023-06-05T04:24:08;8.60;99.90
8067;DHT22;4076;48.076;9.118;2023-06-05T04:26:37;8.60;99.90
8067;DHT22;4076;48.076;9.118;2023-06-05T04:29:04;8.70;99.90
8067;DHT22;4076;48.076;9.118;2023-06-05T04:31:39;8.80;99.90
8067;DHT22;4076;48.076;9.118;2023-06-05T04:34:06;8.90;99.90
8067;DHT22;4076;48.076;9.118;2023-06-05T04:36:33;9.10;99.90
8067;DHT22;4076;48.076;9.118;2023-06-05T04:38:59;9.20;99.90
8067;DHT22;4076;48.076;9.118;2023-06-05T04:41:27;9.30;99.90
8067;DHT22;4076;48.076;9.118;2023-06-05T04:43:55;9.60;99.90
8067;DHT22;4076;48.076;9.118;2023-06-05T04:46:22;9.80;99.90
8067;DHT22;4076;48.076;9.118;2023-06-05T04:48:48;10.10;99.90
8067;DHT22;4076;48.076;9.118;2023-06-05T04:51:14;10.30;99.90
8067;DHT22;4076;48.076;9.118;2023-06-05T04:53:39;10.50;99.90
8067;DHT22;4076;48.076;9.118;2023-06-05T04:56:07;10.50;99.90
8067;DHT22;4076;48.076;9.118;2023-06-05T04:58:32;10.50;99.90
8067;DHT22;4076;48.076;9.118;2023-06-05T05:00:58;10.60;99.90
8067;DHT22;4076;48.076;9.118;2023-06-05T05:03:31;10.70;99.90
8067;DHT22;4076;48.076;9.118;2023-06-05T05:05:56;10.70;99.90
8067;DHT22;4076;48.076;9.118;2023-06-05T05:08:22;10.80;99.90
8067;DHT22;4076;48.076;9.118;2023-06-05T05:10:47;10.90;99.90
8067;DHT22;4076;48.076;9.118;2023-06-05T05:13:13;11.00;99.90
8067;DHT22;4076;48.076;9.118;2023-06-05T05:15:39;11.10;99.90
8067;DHT22;4076;48.076;9.118;2023-06-05T05:18:05;11.20;99.90
8067;DHT22;4076;48.076;9.118;2023-06-05T05:20:30;11.20;99.90
8067;DHT22;4076;48.076;9.118;2023-06-05T05:22:59;11.20;99.90
8067;DHT22;4076;48.076;9.118;2023-06-05T05:25:25;11.40;99.90
8067;DHT22;4076;48.076;9.118;2023-06-05T05:27:51;11.60;99.90
8067;DHT22;4076;48.076;9.118;2023-06-05T05:30:17;11.70;99.90
8067;DHT22;4076;48.076;9.118;2023-06-05T05:32:43;11.90;99.90
8067;DHT22;4076;48.076;9.118;2023-06-05T05:35:08;11.90;99.90
8067;DHT22;4076;48.076;9.118;2023-06-05T05:37:34;12.10;99.90
8067;DHT22;4076;48.076;9.118;2023-06-05T05:39:59;12.20;99.90
8067;DHT22;4076;48.076;9.118;2023-06-05T05:42:25;12.30;99.90
8067;DHT22;4076;48.076;9.118;2023-06-05T05:44:51;12.50;99.90
8067;DHT22;4076;48.076;9.118;2023-06-05T05:47:16;12.70;99.90
8067;DHT22;4076;48.076;9.118;2023-06-05T05:49:42;12.90;99.90
8067;DHT22;4076;48.076;9.118;2023-06-05T05:52:09;13.10;99.90
8067;DHT22;4076;48.076;9.118;2023-06-05T05:54:34;13.30;99.90
8067;DHT22;4076;48.076;9.118;2023-06-05T05:57:00;13.60;99.90
8067;DHT22;4076;48.076;9.118;2023-06-05T05:59:26;13.80;99.90
8067;DHT22;4076;48.076;9.118;2023-06-05T06:01:51;14.00;99.90
8067;DHT22;4076;48.076;9.118;2023-06-05T06:04:18;14.10;99.90
8067;DHT22;4076;48.076;9.118;2023-06-05T06:06:44;14.30;99.90
8067;DHT22;4076;48.076;9.118;2023-06-05T06:09:14;14.40;99.90
8067;DHT22;4076;48.076;9.118;2023-06-05T06:11:41;14.60;99.90
8067;DHT22;4076;48.076;9.118;2023-06-05T06:14:07;14.70;99.90
8067;DHT22;4076;48.076;9.118;2023-06-05T06:16:36;14.70;99.90
8067;DHT22;4076;48.076;9.118;2023-06-05T06:19:02;14.90;99.90
8067;DHT22;4076;48.076;9.118;2023-06-05T06:21:27;15.10;99.90
8067;DHT22;4076;48.076;9.118;2023-06-05T06:23:53;15.30;99.90
8067;DHT22;4076;48.076;9.118;2023-06-05T06:26:19;15.50;99.90
8067;DHT22;4076;48.076;9.118;2023-06-05T06:28:45;15.70;99.90
8067;DHT22;4076;48.076;9.118;2023-06-05T06:31:11;15.80;99.90
8067;DHT22;4076;48.076;9.118;2023-06-05T06:33:37;16.00;99.90
8067;DHT22;4076;48.076;9.118;2023-06-05T06:36:03;16.10;99.90
8067;DHT22;4076;48.076;9.118;2023-06-05T06:38:29;16.10;99.90
8067;DHT22;4076;48.076;9.118;2023-06-05T06:40:57;16.20;99.90
8067;DHT22;4076;48.076;9.118;2023-06-05T06:43:23;16.50;99.90
8067;DHT22;4076;48.076;9.118;2023-06-05T06:45:49;16.70;99.90
8067;DHT22;4076;48.076;9.118;2023-06-05T06:48:16;16.90;99.90
8067;DHT22;4076;48.076;9.118;2023-06-05T06:50:45;17.10;99.90
8067;DHT22;4076;48.076;9.118;2023-06-05T06:53:11;17.30;99.90
8067;DHT22;4076;48.076;9.118;2023-06-05T06:55:37;17.60;99.90
8067;DHT22;4076;48.076;9.118;2023-06-05T06:58:03;17.90;99.90
8067;DHT22;4076;48.076;9.118;2023-06-05T07:00:29;18.20;99.90
8067;DHT22;4076;48.076;9.118;2023-06-05T07:02:54;18.60;99.90
8067;DHT22;4076;48.076;9.118;2023-06-05T07:05:20;19.10;99.30
8067;DHT22;4076;48.076;9.118;2023-06-05T07:07:46;19.40;96.80
8067;DHT22;4076;48.076;9.118;2023-06-05T07:10:12;19.60;95.20
8067;DHT22;4076;48.076;9.118;2023-06-05T07:12:37;19.80;93.70
8067;DHT22;4076;48.076;9.118;2023-06-05T07:15:03;19.90;90.60
8067;DHT22;4076;48.076;9.118;2023-06-05T07:17:29;20.00;89.00
8067;DHT22;4076;48.076;9.118;2023-06-05T07:19:57;20.30;87.40
8067;DHT22;4076;48.076;9.118;2023-06-05T07:22:23;20.70;88.70
8067;DHT22;4076;48.076;9.118;2023-06-05T07:24:50;20.90;83.50
8067;DHT22;4076;48.076;9.118;2023-06-05T07:27:16;21.00;79.60
8067;DHT22;4076;48.076;9.118;2023-06-05T07:29:42;21.20;79.60
8067;DHT22;4076;48.076;9.118;2023-06-05T07:32:07;21.50;76.90
8067;DHT22;4076;48.076;9.118;2023-06-05T07:34:33;21.70;74.70
8067;DHT22;4076;48.076;9.118;2023-06-05T07:37:00;21.90;73.50
8067;DHT22;4076;48.076;9.118;2023-06-05T07:39:26;22.10;70.20
8067;DHT22;4076;48.076;9.118;2023-06-05T07:41:51;22.40;71.50
8067;DHT22;4076;48.076;9.118;2023-06-05T07:44:18;22.80;68.30
8067;DHT22;4076;48.076;9.118;2023-06-05T07:46:46;23.40;65.50
8067;DHT22;4076;48.076;9.118;2023-06-05T07:49:12;24.30;59.80
8067;DHT22;4076;48.076;9.118;2023-06-05T07:51:38;25.00;56.20
8067;DHT22;4076;48.076;9.118;2023-06-05T07:54:06;25.80;54.90
8067;DHT22;4076;48.076;9.118;2023-06-05T07:56:32;27.20;53.20
8067;DHT22;4076;48.076;9.118;2023-06-05T07:58:59;28.50;50.00
8067;DHT22;4076;48.076;9.118;2023-06-05T08:01:26;28.90;46.30
8067;DHT22;4076;48.076;9.118;2023-06-05T08:03:52;29.40;44.60
8067;DHT22;4076;48.076;9.118;2023-06-05T08:06:17;29.20;43.70
8067;DHT22;4076;48.076;9.118;2023-06-05T08:08:44;28.90;44.50
8067;DHT22;4076;48.076;9.118;2023-06-05T08:11:10;29.30;44.80
8067;DHT22;4076;48.076;9.118;2023-06-05T08:13:37;30.50;43.10
8067;DHT22;4076;48.076;9.118;2023-06-05T08:16:04;31.60;40.10
8067;DHT22;4076;48.076;9.118;2023-06-05T08:18:29;32.60;38.90
8067;DHT22;4076;48.076;9.118;2023-06-05T08:20:55;33.40;37.80
8067;DHT22;4076;48.076;9.118;2023-06-05T08:23:21;34.50;36.30
8067;DHT22;4076;48.076;9.118;2023-06-05T08:25:46;34.90;34.00
8067;DHT22;4076;48.076;9.118;2023-06-05T08:28:14;35.10;33.60
8067;DHT22;4076;48.076;9.118;2023-06-05T08:30:41;35.70;33.20
8067;DHT22;4076;48.076;9.118;2023-06-05T08:33:06;36.20;31.50
8067;DHT22;4076;48.076;9.118;2023-06-05T08:35:32;36.40;31.50
8067;DHT22;4076;48.076;9.118;2023-06-05T08:37:58;36.80;30.30
8067;DHT22;4076;48.076;9.118;2023-06-05T08:40:27;37.30;30.00
8067;DHT22;4076;48.076;9.118;2023-06-05T08:42:54;37.60;29.60
8067;DHT22;4076;48.076;9.118;2023-06-05T08:45:20;37.90;29.60
8067;DHT22;4076;48.076;9.118;2023-06-05T08:47:49;37.90;29.20
8067;DHT22;4076;48.076;9.118;2023-06-05T08:50:16;38.30;28.80
8067;DHT22;4076;48.076;9.118;2023-06-05T08:52:43;38.60;28.70
8067;DHT22;4076;48.076;9.118;2023-06-05T08:55:09;38.40;28.30
8067;DHT22;4076;48.076;9.118;2023-06-05T08:57:40;38.80;28.30
8067;DHT22;4076;48.076;9.118;2023-06-05T09:00:08;38.90;27.60
8067;DHT22;4076;48.076;9.118;2023-06-05T09:02:37;39.10;27.20
8067;DHT22;4076;48.076;9.118;2023-06-05T09:05:03;38.80;27.10
8067;DHT22;4076;48.076;9.118;2023-06-05T09:07:30;38.80;27.60
8067;DHT22;4076;48.076;9.118;2023-06-05T09:09:57;39.40;27.40
8067;DHT22;4076;48.076;9.118;2023-06-05T09:12:22;40.00;26.60
8067;DHT22;4076;48.076;9.118;2023-06-05T09:14:50;39.90;26.00
8067;DHT22;4076;48.076;9.118;2023-06-05T09:17:16;39.40;26.80
8067;DHT22;4076;48.076;9.118;2023-06-05T09:19:43;39.40;27.00
8067;DHT22;4076;48.076;9.118;2023-06-05T09:22:11;39.30;26.40
8067;DHT22;4076;48.076;9.118;2023-06-05T09:24:39;39.20;26.60
8067;DHT22;4076;48.076;9.118;2023-06-05T09:27:16;39.70;26.20
8067;DHT22;4076;48.076;9.118;2023-06-05T09:29:42;39.60;25.80
8067;DHT22;4076;48.076;9.118;2023-06-05T09:32:17;39.20;26.10
8067;DHT22;4076;48.076;9.118;2023-06-05T09:34:54;38.90;25.70
8067;DHT22;4076;48.076;9.118;2023-06-05T09:37:33;37.90;26.70
8067;DHT22;4076;48.076;9.118;2023-06-05T09:39:59;37.70;27.00
8067;DHT22;4076;48.076;9.118;2023-06-05T09:42:31;36.90;27.00
8067;DHT22;4076;48.076;9.118;2023-06-05T09:44:58;35.80;28.60
8067;DHT22;4076;48.076;9.118;2023-06-05T09:47:25;35.20;28.40
8067;DHT22;4076;48.076;9.118;2023-06-05T09:49:51;34.20;27.80
8067;DHT22;4076;48.076;9.118;2023-06-05T09:52:16;33.10;29.60
8067;DHT22;4076;48.076;9.118;2023-06-05T09:54:43;32.10;30.60
8067;DHT22;4076;48.076;9.118;2023-06-05T09:57:14;31.30;30.80
8067;DHT22;4076;48.076;9.118;2023-06-05T09:59:53;30.60;31.60
8067;DHT22;4076;48.076;9.118;2023-06-05T10:02:33;29.90;34.00
8067;DHT22;4076;48.076;9.118;2023-06-05T10:05:03;29.60;33.40
8067;DHT22;4076;48.076;9.118;2023-06-05T10:07:33;29.30;33.60
8067;DHT22;4076;48.076;9.118;2023-06-05T10:10:01;28.90;33.10
8067;DHT22;4076;48.076;9.118;2023-06-05T10:12:27;28.10;34.30
8067;DHT22;4076;48.076;9.118;2023-06-05T10:14:54;27.80;34.70
8067;DHT22;4076;48.076;9.118;2023-06-05T10:17:23;27.60;35.80
8067;DHT22;4076;48.076;9.118;2023-06-05T10:19:49;27.70;34.80
8067;DHT22;4076;48.076;9.118;2023-06-05T10:22:17;27.70;33.30
8067;DHT22;4076;48.076;9.118;2023-06-05T10:24:53;27.40;32.80
8067;DHT22;4076;48.076;9.118;2023-06-05T10:31:01;26.70;35.30
8067;DHT22;4076;48.076;9.118;2023-06-05T10:36:10;27.00;35.50
8067;DHT22;4076;48.076;9.118;2023-06-05T10:38:41;26.90;36.00
8067;DHT22;4076;48.076;9.118;2023-06-05T10:41:07;26.50;35.90
8067;DHT22;4076;48.076;9.118;2023-06-05T10:43:46;26.20;36.20
8067;DHT22;4076;48.076;9.118;2023-06-05T10:49:13;26.00;37.10
8067;DHT22;4076;48.076;9.118;2023-06-05T10:51:52;26.40;36.40
8067;DHT22;4076;48.076;9.118;2023-06-05T10:59:38;26.20;35.40
8067;DHT22;4076;48.076;9.118;2023-06-05T11:07:28;26.00;36.00
8067;DHT22;4076;48.076;9.118;2023-06-05T11:15:10;26.60;35.00
8067;DHT22;4076;48.076;9.118;2023-06-05T11:17:38;26.40;33.50
8067;DHT22;4076;48.076;9.118;2023-06-05T11:20:09;25.90;34.30
8067;DHT22;4076;48.076;9.118;2023-06-05T11:27:53;25.60;35.20
8067;DHT22;4076;48.076;9.118;2023-06-05T11:30:20;25.50;35.70
8067;DHT22;4076;48.076;9.118;2023-06-05T11:32:47;25.50;35.20
8067;DHT22;4076;48.076;9.118;2023-06-05T11:35:13;25.40;35.30
8067;DHT22;4076;48.076;9.118;2023-06-05T11:37:39;25.30;34.30
8067;DHT22;4076;48.076;9.118;2023-06-05T11:40:08;25.30;35.50
8067;DHT22;4076;48.076;9.118;2023-06-05T11:42:40;25.40;34.70
8067;DHT22;4076;48.076;9.118;2023-06-05T11:45:15;25.40;35.20
8067;DHT22;4076;48.076;9.118;2023-06-05T11:47:40;25.30;35.80
8067;DHT22;4076;48.076;9.118;2023-06-05T11:50:10;25.40;35.70
8067;DHT22;4076;48.076;9.118;2023-06-05T11:52:37;25.50;35.60
8067;DHT22;4076;48.076;9.118;2023-06-05T11:55:17;25.50;35.70
8067;DHT22;4076;48.076;9.118;2023-06-05T11:57:46;25.50;34.70
8067;DHT22;4076;48.076;9.118;2023-06-05T12:00:15;25.50;35.70
8067;DHT22;4076;48.076;9.118;2023-06-05T12:02:47;25.50;35.30
8067;DHT22;4076;48.076;9.118;2023-06-05T12:05:14;25.30;36.20
8067;DHT22;4076;48.076;9.118;2023-06-05T12:07:39;25.20;36.50
8067;DHT22;4076;48.076;9.118;2023-06-05T12:10:06;25.20;36.10
8067;DHT22;4076;48.076;9.118;2023-06-05T12:12:54;25.20;35.90
8067;DHT22;4076;48.076;9.118;2023-06-05T12:15:20;25.20;35.90
8067;DHT22;4076;48.076;9.118;2023-06-05T12:20:16;25.30;35.90
8067;DHT22;4076;48.076;9.118;2023-06-05T12:22:42;25.20;36.50
8067;DHT22;4076;48.076;9.118;2023-06-05T12:25:21;25.20;36.90
8067;DHT22;4076;48.076;9.118;2023-06-05T12:27:48;25.30;36.30
8067;DHT22;4076;48.076;9.118;2023-06-05T12:30:15;25.50;35.90
8067;DHT22;4076;48.076;9.118;2023-06-05T12:32:42;25.30;35.90
8067;DHT22;4076;48.076;9.118;2023-06-05T12:35:22;25.20;36.00
8067;DHT22;4076;48.076;9.118;2023-06-05T12:37:48;24.90;36.00
8067;DHT22;4076;48.076;9.118;2023-06-05T12:40:15;24.60;36.20
8067;DHT22;4076;48.076;9.118;2023-06-05T12:42:46;24.50;36.70
8067;DHT22;4076;48.076;9.118;2023-06-05T12:45:12;24.60;37.80
8067;DHT22;4076;48.076;9.118;2023-06-05T12:47:38;24.70;36.60
8067;DHT22;4076;48.076;9.118;2023-06-05T12:50:05;24.80;36.60
8067;DHT22;4076;48.076;9.118;2023-06-05T12:52:32;25.00;36.00
8067;DHT22;4076;48.076;9.118;2023-06-05T12:54:58;25.00;35.70
8067;DHT22;4076;48.076;9.118;2023-06-05T12:57:25;25.00;37.40
8067;DHT22;4076;48.076;9.118;2023-06-05T12:59:52;25.00;36.70
8067;DHT22;4076;48.076;9.118;2023-06-05T13:02:18;25.20;35.50
8067;DHT22;4076;48.076;9.118;2023-06-05T13:04:44;25.20;35.20
8067;DHT22;4076;48.076;9.118;2023-06-05T13:07:09;25.00;36.10
8067;DHT22;4076;48.076;9.118;2023-06-05T13:09:38;24.80;35.80
8067;DHT22;4076;48.076;9.118;2023-06-05T13:12:04;24.60;36.90
8067;DHT22;4076;48.076;9.118;2023-06-05T13:14:31;24.50;36.50
8067;DHT22;4076;48.076;9.118;2023-06-05T13:16:57;24.40;35.70
8067;DHT22;4076;48.076;9.118;2023-06-05T13:19:23;24.50;35.90
8067;DHT22;4076;48.076;9.118;2023-06-05T13:21:49;24.70;36.10
8067;DHT22;4076;48.076;9.118;2023-06-05T13:24:15;24.90;36.80
8067;DHT22;4076;48.076;9.118;2023-06-05T13:26:41;24.80;36.60
8067;DHT22;4076;48.076;9.118;2023-06-05T13:29:08;25.00;36.40
8067;DHT22;4076;48.076;9.118;2023-06-05T13:31:34;25.00;36.10
8067;DHT22;4076;48.076;9.118;2023-06-05T13:33:59;24.90;36.40
8067;DHT22;4076;48.076;9.118;2023-06-05T13:36:25;24.90;36.10
8067;DHT22;4076;48.076;9.118;2023-06-05T13:38:51;25.00;36.20
8067;DHT22;4076;48.076;9.118;2023-06-05T13:41:17;24.90;35.40
8067;DHT22;4076;48.076;9.118;2023-06-05T13:43:43;24.70;36.10
8067;DHT22;4076;48.076;9.118;2023-06-05T13:46:08;24.50;36.80
8067;DHT22;4076;48.076;9.118;2023-06-05T13:48:34;24.30;36.40
8067;DHT22;4076;48.076;9.118;2023-06-05T13:51:00;24.20;37.10
8067;DHT22;4076;48.076;9.118;2023-06-05T13:53:26;24.10;37.40
8067;DHT22;4076;48.076;9.118;2023-06-05T13:55:52;24.20;37.60
8067;DHT22;4076;48.076;9.118;2023-06-05T13:58:18;24.40;37.60
8067;DHT22;4076;48.076;9.118;2023-06-05T14:00:45;24.80;36.90
8067;DHT22;4076;48.076;9.118;2023-06-05T14:03:12;24.80;36.70
8067;DHT22;4076;48.076;9.118;2023-06-05T14:05:38;24.70;35.40
8067;DHT22;4076;48.076;9.118;2023-06-05T14:08:05;24.40;36.00
8067;DHT22;4076;48.076;9.118;2023-06-05T14:10:32;24.10;36.30
8067;DHT22;4076;48.076;9.118;2023-06-05T14:13:01;24.00;36.30
8067;DHT22;4076;48.076;9.118;2023-06-05T14:15:26;23.90;36.60
8067;DHT22;4076;48.076;9.118;2023-06-05T14:17:52;23.90;37.20
8067;DHT22;4076;48.076;9.118;2023-06-05T14:20:18;24.00;37.70
8067;DHT22;4076;48.076;9.118;2023-06-05T14:22:44;24.30;37.10
8067;DHT22;4076;48.076;9.118;2023-06-05T14:25:10;24.50;36.50
8067;DHT22;4076;48.076;9.118;2023-06-05T14:27:36;24.60;36.50
8067;DHT22;4076;48.076;9.118;2023-06-05T14:30:02;24.50;36.00
8067;DHT22;4076;48.076;9.118;2023-06-05T14:32:28;24.30;36.20
8067;DHT22;4076;48.076;9.118;2023-06-05T14:34:53;24.20;36.40
8067;DHT22;4076;48.076;9.118;2023-06-05T14:37:19;24.20;37.10
8067;DHT22;4076;48.076;9.118;2023-06-05T14:39:44;24.30;37.30
8067;DHT22;4076;48.076;9.118;2023-06-05T14:42:10;24.40;38.00
8067;DHT22;4076;48.076;9.118;2023-06-05T14:44:35;24.50;37.40
8067;DHT22;4076;48.076;9.118;2023-06-05T14:47:01;24.60;36.90
8067;DHT22;4076;48.076;9.118;2023-06-05T14:49:27;24.60;37.50
8067;DHT22;4076;48.076;9.118;2023-06-05T14:51:52;24.60;37.20
8067;DHT22;4076;48.076;9.118;2023-06-05T14:54:18;24.50;37.20
8067;DHT22;4076;48.076;9.118;2023-06-05T14:56:44;24.50;38.10
8067;DHT22;4076;48.076;9.118;2023-06-05T14:59:14;24.60;37.90
8067;DHT22;4076;48.076;9.118;2023-06-05T15:01:40;24.70;37.70
8067;DHT22;4076;48.076;9.118;2023-06-05T15:04:06;24.70;38.00
8067;DHT22;4076;48.076;9.118;2023-06-05T15:06:31;24.80;37.90
8067;DHT22;4076;48.076;9.118;2023-06-05T15:08:57;24.80;37.70
8067;DHT22;4076;48.076;9.118;2023-06-05T15:11:23;25.00;37.70
8067;DHT22;4076;48.076;9.118;2023-06-05T15:13:48;25.10;37.40
8067;DHT22;4076;48.076;9.118;2023-06-05T15:16:14;25.20;38.00
8067;DHT22;4076;48.076;9.118;2023-06-05T15:18:40;25.30;36.60
8067;DHT22;4076;48.076;9.118;2023-06-05T15:21:05;25.50;35.30
8067;DHT22;4076;48.076;9.118;2023-06-05T15:23:31;25.40;35.90
8067;DHT22;4076;48.076;9.118;2023-06-05T15:25:56;25.40;36.10
8067;DHT22;4076;48.076;9.118;2023-06-05T15:28:22;25.40;35.90
8067;DHT22;4076;48.076;9.118;2023-06-05T15:30:48;25.30;35.90
8067;DHT22;4076;48.076;9.118;2023-06-05T15:33:14;25.20;36.00
8067;DHT22;4076;48.076;9.118;2023-06-05T15:35:41;25.00;35.80
8067;DHT22;4076;48.076;9.118;2023-06-05T15:38:10;24.80;36.30
8067;DHT22;4076;48.076;9.118;2023-06-05T15:40:36;24.50;36.10
8067;DHT22;4076;48.076;9.118;2023-06-05T15:43:06;24.20;36.30
8067;DHT22;4076;48.076;9.118;2023-06-05T15:45:33;23.90;36.70
8067;DHT22;4076;48.076;9.118;2023-06-05T15:47:59;23.70;36.50
8067;DHT22;4076;48.076;9.118;2023-06-05T15:50:24;23.50;37.30
8067;DHT22;4076;48.076;9.118;2023-06-05T15:52:50;23.50;37.60
8067;DHT22;4076;48.076;9.118;2023-06-05T15:55:16;23.50;37.70
8067;DHT22;4076;48.076;9.118;2023-06-05T15:57:42;23.50;37.90
8067;DHT22;4076;48.076;9.118;2023-06-05T16:00:11;23.60;37.90
8067;DHT22;4076;48.076;9.118;2023-06-05T16:02:37;23.80;37.00
8067;DHT22;4076;48.076;9.118;2023-06-05T16:05:03;24.10;36.70
8067;DHT22;4076;48.076;9.118;2023-06-05T16:07:28;24.20;36.90
8067;DHT22;4076;48.076;9.118;2023-06-05T16:09:54;24.30;36.20
8067;DHT22;4076;48.076;9.118;2023-06-05T16:12:19;24.40;36.50
8067;DHT22;4076;48.076;9.118;2023-06-05T16:14:45;24.50;36.30
8067;DHT22;4076;48.076;9.118;2023-06-05T16:17:11;24.60;36.30
8067;DHT22;4076;48.076;9.118;2023-06-05T16:19:36;24.60;35.90
8067;DHT22;4076;48.076;9.118;2023-06-05T16:22:02;24.60;35.70
8067;DHT22;4076;48.076;9.118;2023-06-05T16:24:28;24.50;36.00
8067;DHT22;4076;48.076;9.118;2023-06-05T16:26:53;24.40;36.10
8067;DHT22;4076;48.076;9.118;2023-06-05T16:29:19;24.30;36.00
8067;DHT22;4076;48.076;9.118;2023-06-05T16:31:45;24.30;36.10
8067;DHT22;4076;48.076;9.118;2023-06-05T16:34:12;24.30;35.90
8067;DHT22;4076;48.076;9.118;2023-06-05T16:36:38;24.30;36.00
8067;DHT22;4076;48.076;9.118;2023-06-05T16:39:04;24.30;35.20